createdAt,value
2023-05-06T00:00:04.453Z,29.40
2023-05-06T00:01:04.411Z,26.50
2023-05-06T00:02:04.480Z,29.80
2023-05-06T00:03:04.570Z,27.00
2023-05-06T00:04:04.589Z,23.40
2023-05-06T00:05:04.404Z,21.40
2023-05-06T00:06:04.379Z,25.00
2023-05-06T00:07:04.373Z,20.70
2023-05-06T00:08:04.456Z,22.10
2023-05-06T00:09:04.381Z,20.40
2023-05-06T00:10:04.371Z,18.50
2023-05-06T00:11:04.350Z,21.80
2023-05-06T00:12:04.352Z,21.40
2023-05-06T00:13:04.391Z,22.60
2023-05-06T00:14:04.351Z,21.00
2023-05-06T00:15:04.317Z,24.00
2023-05-06T00:16:04.344Z,24.10
2023-05-06T00:17:04.299Z,24.10
2023-05-06T00:18:04.357Z,23.30
2023-05-06T00:19:04.281Z,26.70
2023-05-06T00:20:04.299Z,23.40
2023-05-06T00:21:04.270Z,24.90
2023-05-06T00:22:04.299Z,20.80
2023-05-06T00:23:04.257Z,23.30
2023-05-06T00:24:04.366Z,22.70
2023-05-06T00:25:04.252Z,19.90
2023-05-06T00:26:04.274Z,17.60
2023-05-06T00:27:04.273Z,18.60
2023-05-06T00:28:04.259Z,21.30
2023-05-06T00:29:04.216Z,24.60
2023-05-06T00:30:04.251Z,22.30
2023-05-06T00:31:04.271Z,18.50
2023-05-06T00:32:04.313Z,18.80
2023-05-06T00:33:04.239Z,22.40
2023-05-06T00:34:04.200Z,20.80
2023-05-06T00:35:04.189Z,21.90
2023-05-06T00:36:04.208Z,20.20
2023-05-06T00:37:04.165Z,19.60
2023-05-06T00:38:04.184Z,21.50
2023-05-06T00:39:04.168Z,26.40
2023-05-06T00:40:04.394Z,26.00
2023-05-06T00:41:04.164Z,18.80
2023-05-06T00:42:04.146Z,18.50
2023-05-06T00:43:04.127Z,18.10
2023-05-06T00:44:04.164Z,24.10
2023-05-06T00:45:04.119Z,25.80
2023-05-06T00:46:04.154Z,20.90
2023-05-06T00:47:04.119Z,22.00
2023-05-06T00:48:04.151Z,26.80
2023-05-06T00:49:04.087Z,27.50
2023-05-06T00:50:04.113Z,40.80
2023-05-06T00:51:04.092Z,51.50
2023-05-06T00:52:04.115Z,40.00
2023-05-06T00:53:04.100Z,37.20
2023-05-06T00:54:04.069Z,171.80
2023-05-06T00:55:04.056Z,41.70
2023-05-06T00:56:04.082Z,57.70
2023-05-06T00:57:04.156Z,36.60
2023-05-06T00:58:04.052Z,34.50
2023-05-06T00:59:04.029Z,32.70
2023-05-06T01:00:04.073Z,44.90
2023-05-06T01:01:04.059Z,43.30
2023-05-06T01:02:04.077Z,36.80
2023-05-06T01:03:04.169Z,32.20
2023-05-06T01:04:04.025Z,29.40
2023-05-06T01:05:04.099Z,28.10
2023-05-06T01:06:04.012Z,26.40
2023-05-06T01:07:03.976Z,28.20
2023-05-06T01:08:04.001Z,36.40
2023-05-06T01:09:03.952Z,27.50
2023-05-06T01:10:03.986Z,29.60
2023-05-06T01:11:03.964Z,33.10
2023-05-06T01:12:03.954Z,38.50
2023-05-06T01:13:03.943Z,38.90
2023-05-06T01:14:03.964Z,35.10
2023-05-06T01:15:03.962Z,35.40
2023-05-06T01:16:03.974Z,27.90
2023-05-06T01:17:04.017Z,26.80
2023-05-06T01:18:03.953Z,35.10
2023-05-06T01:19:03.884Z,35.60
2023-05-06T01:20:03.904Z,34.80
2023-05-06T01:21:03.897Z,160.40
2023-05-06T01:22:03.908Z,147.00
2023-05-06T01:23:03.885Z,38.80
2023-05-06T01:24:03.877Z,33.50
2023-05-06T01:25:03.863Z,35.00
2023-05-06T01:26:03.867Z,33.40
2023-05-06T01:27:03.840Z,26.60
2023-05-06T01:28:03.920Z,30.60
2023-05-06T01:29:03.886Z,39.30
2023-05-06T01:30:03.861Z,42.50
2023-05-06T01:31:03.871Z,36.00
2023-05-06T01:32:03.836Z,36.50
2023-05-06T01:33:03.943Z,35.80
2023-05-06T01:34:03.819Z,28.50
2023-05-06T01:35:03.820Z,29.70
2023-05-06T01:36:03.798Z,29.60
2023-05-06T01:37:03.788Z,27.60
2023-05-06T01:38:03.791Z,32.50
2023-05-06T01:39:03.780Z,31.90
2023-05-06T01:40:03.779Z,30.60
2023-05-06T01:41:03.773Z,30.50
2023-05-06T01:42:03.773Z,29.60
2023-05-06T01:43:03.765Z,40.80
2023-05-06T01:44:03.763Z,30.30
2023-05-06T01:45:03.757Z,33.60
2023-05-06T01:46:03.815Z,28.30
2023-05-06T01:47:03.714Z,40.20
2023-05-06T01:48:03.784Z,56.90
2023-05-06T01:49:03.703Z,803.20
2023-05-06T01:50:03.731Z,56.80
2023-05-06T01:51:03.709Z,133.90
2023-05-06T01:52:03.723Z,313.60
2023-05-06T01:53:03.686Z,211.40
2023-05-06T01:54:03.680Z,280.30
2023-05-06T01:55:03.677Z,168.80
2023-05-06T01:56:03.672Z,74.30
2023-05-06T01:57:03.651Z,43.50
2023-05-06T01:58:03.688Z,39.60
2023-05-06T01:59:03.648Z,37.70
2023-05-06T02:00:03.752Z,34.60
2023-05-06T02:01:03.629Z,30.00
2023-05-06T02:02:03.673Z,34.40
2023-05-06T02:03:03.711Z,38.70
2023-05-06T02:04:03.790Z,97.80
2023-05-06T02:05:03.596Z,527.70
2023-05-06T02:06:03.607Z,292.90
2023-05-06T02:07:03.622Z,73.50
2023-05-06T02:08:03.621Z,112.30
2023-05-06T02:09:03.598Z,152.50
2023-05-06T02:10:03.612Z,63.80
2023-05-06T02:11:03.563Z,152.00
2023-05-06T02:12:03.604Z,354.70
2023-05-06T02:13:03.600Z,623.50
2023-05-06T02:14:03.560Z,191.10
2023-05-06T02:15:03.537Z,271.00
2023-05-06T02:16:03.582Z,262.20
2023-05-06T02:17:03.593Z,553.00
2023-05-06T02:18:03.585Z,245.10
2023-05-06T02:19:03.542Z,425.30
2023-05-06T02:20:03.533Z,441.10
2023-05-06T02:21:03.499Z,469.70
2023-05-06T02:22:03.522Z,474.70
2023-05-06T02:23:03.488Z,483.40
2023-05-06T02:24:03.508Z,428.40
2023-05-06T02:25:03.474Z,442.60
2023-05-06T02:26:03.484Z,586.90
2023-05-06T02:27:03.479Z,684.20
2023-05-06T02:28:03.487Z,621.80
2023-05-06T02:29:03.455Z,472.90
2023-05-06T02:30:03.482Z,488.50
2023-05-06T02:31:03.431Z,593.90
2023-05-06T02:32:03.502Z,491.60
2023-05-06T02:33:03.495Z,451.40
2023-05-06T02:34:03.451Z,420.50
2023-05-06T02:35:03.423Z,275.00
2023-05-06T02:36:03.448Z,193.80
2023-05-06T02:37:03.426Z,252.30
2023-05-06T02:38:03.412Z,359.20
2023-05-06T02:39:03.378Z,376.10
2023-05-06T02:40:03.399Z,311.50
2023-05-06T02:41:03.372Z,215.50
2023-05-06T02:42:03.417Z,240.70
2023-05-06T02:43:03.393Z,411.00
2023-05-06T02:44:03.360Z,531.70
2023-05-06T02:45:03.368Z,772.30
2023-05-06T02:46:03.397Z,532.00
2023-05-06T02:47:03.325Z,489.30
2023-05-06T02:48:03.475Z,485.90
2023-05-06T02:49:03.329Z,807.90
2023-05-06T02:50:03.330Z,333.80
2023-05-06T02:51:03.303Z,550.10
2023-05-06T02:52:03.315Z,519.00
2023-05-06T02:53:03.310Z,465.30
2023-05-06T02:54:03.320Z,441.30
2023-05-06T02:55:03.272Z,569.40
2023-05-06T02:56:03.289Z,740.00
2023-05-06T02:57:03.269Z,635.90
2023-05-06T02:58:03.299Z,957.70
2023-05-06T02:59:03.259Z,726.60
2023-05-06T03:00:03.302Z,713.60
2023-05-06T03:01:03.257Z,694.40
2023-05-06T03:02:03.272Z,702.50
2023-05-06T03:03:03.262Z,769.10
2023-05-06T03:04:03.387Z,879.30
2023-05-06T03:05:03.225Z,856.30
2023-05-06T03:06:03.235Z,828.00
2023-05-06T03:07:03.192Z,941.80
2023-05-06T03:08:03.217Z,784.00
2023-05-06T03:09:03.196Z,809.20
2023-05-06T03:10:03.241Z,1017.50
2023-05-06T03:11:03.193Z,1049.90
2023-05-06T03:12:03.181Z,1327.90
2023-05-06T03:13:03.225Z,866.00
2023-05-06T03:14:03.176Z,1188.50
2023-05-06T03:15:03.136Z,1034.60
2023-05-06T03:16:03.191Z,655.20
2023-05-06T03:17:03.126Z,739.40
2023-05-06T03:18:03.167Z,533.00
2023-05-06T03:19:03.120Z,584.50
2023-05-06T03:20:03.231Z,607.50
2023-05-06T03:21:03.160Z,742.60
2023-05-06T03:22:03.126Z,833.30
2023-05-06T03:23:03.094Z,626.70
2023-05-06T03:24:03.086Z,507.80
2023-05-06T03:25:03.075Z,560.70
2023-05-06T03:26:03.119Z,458.60
2023-05-06T03:27:03.065Z,664.40
2023-05-06T03:28:03.072Z,570.50
2023-05-06T03:29:03.044Z,526.20
2023-05-06T03:30:03.069Z,395.20
2023-05-06T03:31:03.111Z,504.80
2023-05-06T03:32:03.042Z,700.80
2023-05-06T03:33:03.094Z,814.10
2023-05-06T03:34:03.058Z,679.60
2023-05-06T03:35:03.024Z,632.60
2023-05-06T03:36:03.090Z,613.50
2023-05-06T03:37:02.997Z,601.70
2023-05-06T03:38:03.035Z,627.60
2023-05-06T03:39:03.000Z,823.90
2023-05-06T03:40:02.992Z,890.80
2023-05-06T03:41:02.965Z,743.90
2023-05-06T03:42:02.997Z,794.00
2023-05-06T03:43:02.958Z,942.80
2023-05-06T03:44:02.950Z,809.50
2023-05-06T03:45:02.983Z,725.40
2023-05-06T03:46:02.978Z,829.60
2023-05-06T03:47:02.930Z,829.20
2023-05-06T03:48:02.992Z,868.40
2023-05-06T03:49:02.965Z,847.00
2023-05-06T03:50:02.921Z,609.20
2023-05-06T03:51:02.911Z,689.70
2023-05-06T03:52:03.024Z,767.00
2023-05-06T03:53:02.884Z,811.40
2023-05-06T03:54:02.891Z,598.40
2023-05-06T03:55:02.882Z,704.90
2023-05-06T03:56:02.918Z,692.90
2023-05-06T03:57:02.858Z,675.70
2023-05-06T03:58:02.867Z,646.60
2023-05-06T03:59:02.835Z,758.70
2023-05-06T04:00:02.851Z,826.90
2023-05-06T04:01:02.847Z,764.10
2023-05-06T04:02:02.871Z,933.00
2023-05-06T04:03:02.877Z,851.10
2023-05-06T04:04:02.852Z,716.90
2023-05-06T04:05:02.831Z,707.30
2023-05-06T04:06:02.807Z,752.40
2023-05-06T04:07:02.806Z,693.70
2023-05-06T04:08:02.923Z,837.10
2023-05-06T04:09:02.770Z,860.20
2023-05-06T04:10:02.788Z,874.60
2023-05-06T04:11:02.771Z,612.90
2023-05-06T04:12:02.788Z,704.60
2023-05-06T04:13:02.821Z,642.50
2023-05-06T04:14:02.764Z,700.90
2023-05-06T04:15:02.771Z,791.90
2023-05-06T04:16:03.025Z,730.90
2023-05-06T04:17:02.741Z,838.90
2023-05-06T04:18:02.814Z,729.80
2023-05-06T04:19:05.017Z,675.40
2023-05-06T04:20:02.708Z,602.50
2023-05-06T04:21:02.699Z,781.20
2023-05-06T04:22:02.733Z,769.80
2023-05-06T04:23:02.737Z,738.60
2023-05-06T04:24:02.722Z,721.30
2023-05-06T04:25:02.666Z,701.00
2023-05-06T04:26:02.714Z,751.00
2023-05-06T04:27:02.676Z,567.50
2023-05-06T04:28:02.669Z,628.50
2023-05-06T04:29:02.640Z,725.40
2023-05-06T04:30:02.682Z,542.70
2023-05-06T04:31:02.635Z,559.20
2023-05-06T04:32:02.766Z,588.30
2023-05-06T04:33:02.665Z,475.40
2023-05-06T04:34:02.637Z,507.60
2023-05-06T04:35:02.603Z,452.40
2023-05-06T04:36:02.630Z,438.70
2023-05-06T04:37:02.610Z,768.20
2023-05-06T04:38:02.612Z,379.90
2023-05-06T04:39:02.577Z,369.20
2023-05-06T04:40:02.647Z,429.50
2023-05-06T04:41:02.568Z,321.10
2023-05-06T04:42:02.598Z,774.70
2023-05-06T04:43:02.570Z,468.30
2023-05-06T04:44:02.559Z,596.10
2023-05-06T04:45:02.547Z,332.70
2023-05-06T04:46:02.609Z,179.80
2023-05-06T04:47:02.532Z,50.30
2023-05-06T04:48:02.609Z,133.80
2023-05-06T04:49:02.520Z,107.80
2023-05-06T04:50:02.561Z,118.50
2023-05-06T04:51:02.511Z,74.10
2023-05-06T04:52:02.530Z,153.60
2023-05-06T04:53:02.509Z,178.50
2023-05-06T04:54:02.536Z,142.40
2023-05-06T04:55:02.490Z,203.50
2023-05-06T04:56:02.519Z,216.10
2023-05-06T04:57:02.524Z,300.50
2023-05-06T04:58:02.497Z,281.90
2023-05-06T04:59:02.483Z,299.60
2023-05-06T05:00:02.467Z,391.60
2023-05-06T05:01:02.490Z,290.20
2023-05-06T05:02:02.492Z,332.00
2023-05-06T05:03:02.570Z,241.30
2023-05-06T05:04:02.473Z,330.90
2023-05-06T05:05:02.449Z,315.20
2023-05-06T05:06:02.448Z,354.90
2023-05-06T05:07:02.420Z,408.00
2023-05-06T05:08:02.415Z,621.80
2023-05-06T05:09:02.396Z,335.50
2023-05-06T05:10:02.405Z,434.90
2023-05-06T05:11:02.406Z,471.00
2023-05-06T05:12:02.463Z,416.40
2023-05-06T05:13:02.422Z,264.50
2023-05-06T05:14:02.570Z,395.50
2023-05-06T05:15:02.366Z,238.60
2023-05-06T05:16:02.379Z,243.10
2023-05-06T05:17:02.417Z,206.50
2023-05-06T05:18:02.476Z,362.70
2023-05-06T05:19:03.797Z,361.50
2023-05-06T05:20:02.359Z,333.00
2023-05-06T05:21:02.319Z,303.50
2023-05-06T05:22:02.334Z,519.50
2023-05-06T05:23:02.324Z,402.60
2023-05-06T05:24:02.355Z,261.60
2023-05-06T05:25:02.301Z,543.40
2023-05-06T05:26:02.306Z,352.70
2023-05-06T05:27:02.306Z,267.40
2023-05-06T05:28:02.386Z,287.20
2023-05-06T05:29:02.281Z,416.50
2023-05-06T05:30:02.281Z,355.10
2023-05-06T05:31:02.305Z,252.30
2023-05-06T05:32:02.269Z,315.50
2023-05-06T05:33:02.321Z,465.60
2023-05-06T05:34:02.303Z,358.10
2023-05-06T05:35:02.268Z,245.20
2023-05-06T05:36:02.262Z,278.50
2023-05-06T05:37:02.230Z,137.60
2023-05-06T05:38:02.236Z,482.30
2023-05-06T05:39:02.249Z,569.40
2023-05-06T05:40:02.250Z,428.70
2023-05-06T05:41:02.232Z,169.60
2023-05-06T05:42:02.353Z,264.90
2023-05-06T05:43:02.223Z,215.50
2023-05-06T05:44:02.259Z,83.30
2023-05-06T05:45:02.180Z,248.00
2023-05-06T05:46:02.217Z,191.00
2023-05-06T05:47:02.185Z,648.50
2023-05-06T05:48:02.225Z,637.10
2023-05-06T05:49:02.170Z,346.60
2023-05-06T05:50:02.159Z,828.70
2023-05-06T05:51:02.133Z,564.90
2023-05-06T05:52:02.160Z,263.50
2023-05-06T05:53:02.142Z,385.20
2023-05-06T05:54:02.135Z,511.30
2023-05-06T05:55:02.154Z,347.00
2023-05-06T05:56:02.138Z,399.20
2023-05-06T05:57:02.100Z,634.30
2023-05-06T05:58:02.116Z,668.70
2023-05-06T05:59:02.119Z,569.30
2023-05-06T06:00:02.158Z,324.60
2023-05-06T06:01:02.152Z,562.30
2023-05-06T06:02:02.091Z,404.40
2023-05-06T06:03:02.117Z,417.00
2023-05-06T06:04:02.211Z,702.30
2023-05-06T06:05:02.137Z,643.80
2023-05-06T06:06:02.059Z,446.00
2023-05-06T06:07:02.126Z,232.60
2023-05-06T06:08:03.749Z,153.10
2023-05-06T06:09:02.004Z,223.60
2023-05-06T06:10:02.035Z,154.00
2023-05-06T06:11:02.039Z,190.80
2023-05-06T06:12:02.029Z,140.40
2023-05-06T06:13:02.005Z,98.90
2023-05-06T06:14:02.021Z,113.00
2023-05-06T06:15:02.002Z,153.70
2023-05-06T06:16:02.075Z,41.40
2023-05-06T06:17:01.955Z,101.00
2023-05-06T06:18:01.985Z,36.70
2023-05-06T06:19:01.952Z,25.90
2023-05-06T06:20:01.987Z,42.90
2023-05-06T06:21:01.953Z,53.30
2023-05-06T06:22:01.973Z,50.60
2023-05-06T06:23:01.916Z,43.80
2023-05-06T06:24:01.946Z,36.10
2023-05-06T06:25:01.921Z,38.90
2023-05-06T06:26:01.916Z,46.80
2023-05-06T06:27:01.886Z,49.80
2023-05-06T06:28:01.951Z,59.20
2023-05-06T06:29:01.883Z,52.40
2023-05-06T06:30:01.901Z,57.30
2023-05-06T06:31:01.928Z,59.40
2023-05-06T06:32:01.904Z,66.30
2023-05-06T06:33:01.880Z,53.90
2023-05-06T06:34:01.870Z,29.30
2023-05-06T06:35:01.845Z,15.60
2023-05-06T06:36:01.860Z,14.50
2023-05-06T06:37:01.830Z,12.60
2023-05-06T06:38:01.813Z,11.40
2023-05-06T06:39:01.791Z,12.10
2023-05-06T06:40:01.833Z,12.00
2023-05-06T06:41:01.791Z,11.90
2023-05-06T06:42:01.811Z,11.80
2023-05-06T06:43:01.789Z,15.30
2023-05-06T06:44:01.798Z,14.90
2023-05-06T06:45:01.754Z,13.00
2023-05-06T06:46:01.830Z,13.60
2023-05-06T06:47:01.730Z,9.20
2023-05-06T06:48:01.965Z,11.80
2023-05-06T06:49:01.719Z,11.40
2023-05-06T06:50:01.734Z,10.30
2023-05-06T06:51:01.710Z,12.50
2023-05-06T06:52:02.150Z,10.10
2023-05-06T06:53:04.795Z,8.10
2023-05-06T06:54:01.723Z,9.10
2023-05-06T06:55:01.753Z,10.80
2023-05-06T06:56:01.687Z,11.20
2023-05-06T06:57:01.657Z,10.10
2023-05-06T06:58:01.672Z,8.10
2023-05-06T06:59:01.640Z,8.10
2023-05-06T07:00:01.685Z,7.00
2023-05-06T07:01:01.715Z,9.80
2023-05-06T07:02:01.662Z,7.60
2023-05-06T07:03:01.658Z,8.70
2023-05-06T07:04:01.691Z,8.90
2023-05-06T07:05:01.599Z,6.70
2023-05-06T07:06:01.623Z,9.90
2023-05-06T07:07:01.615Z,6.00
2023-05-06T07:08:01.596Z,5.80
2023-05-06T07:09:01.579Z,5.40
2023-05-06T07:10:01.598Z,4.60
2023-05-06T07:11:01.564Z,8.60
2023-05-06T07:12:01.540Z,8.80
2023-05-06T07:13:01.582Z,7.20
2023-05-06T07:14:01.544Z,7.10
2023-05-06T07:15:01.525Z,8.40
2023-05-06T07:16:01.532Z,7.10
2023-05-06T07:17:01.579Z,8.10
2023-05-06T07:18:01.552Z,8.50
2023-05-06T07:19:01.476Z,7.10
2023-05-06T07:20:01.499Z,7.10
2023-05-06T07:21:01.466Z,8.40
2023-05-06T07:22:01.481Z,7.80
2023-05-06T07:23:01.442Z,8.00
2023-05-06T07:24:01.458Z,8.60
2023-05-06T07:25:01.469Z,9.10
2023-05-06T07:26:01.454Z,9.90
2023-05-06T07:27:01.426Z,9.00
2023-05-06T07:28:01.438Z,8.00
2023-05-06T07:29:01.400Z,8.60
2023-05-06T07:30:01.464Z,8.30
2023-05-06T07:31:01.428Z,6.80
2023-05-06T07:32:01.418Z,8.60
2023-05-06T07:33:01.433Z,7.40
2023-05-06T07:34:01.392Z,7.30
2023-05-06T07:35:01.430Z,7.40
2023-05-06T07:36:01.433Z,5.80
2023-05-06T07:37:01.373Z,7.20
2023-05-06T07:38:01.380Z,6.50
2023-05-06T07:39:01.342Z,6.80
2023-05-06T07:40:01.379Z,6.30
2023-05-06T07:41:01.314Z,6.60
2023-05-06T07:42:01.333Z,5.10
2023-05-06T07:43:01.322Z,7.60
2023-05-06T07:44:01.310Z,5.60
2023-05-06T07:45:01.327Z,7.10
2023-05-06T07:46:01.349Z,6.40
2023-05-06T07:47:01.357Z,6.40
2023-05-06T07:48:01.310Z,5.40
2023-05-06T07:49:01.281Z,8.60
2023-05-06T07:50:01.296Z,5.80
2023-05-06T07:51:01.277Z,4.90
2023-05-06T07:52:01.260Z,7.60
2023-05-06T07:53:01.259Z,5.20
2023-05-06T07:54:01.236Z,6.90
2023-05-06T07:55:01.291Z,5.60
2023-05-06T07:56:01.218Z,5.80
2023-05-06T07:57:01.194Z,4.80
2023-05-06T07:58:01.207Z,8.40
2023-05-06T07:59:01.207Z,5.70
2023-05-06T08:00:01.204Z,5.20
2023-05-06T08:01:01.211Z,4.00
2023-05-06T08:02:01.373Z,5.00
2023-05-06T08:03:01.280Z,4.80
2023-05-06T08:04:01.260Z,4.80
2023-05-06T08:05:01.142Z,5.50
2023-05-06T08:06:01.181Z,5.50
2023-05-06T08:07:08.227Z,5.30
2023-05-06T08:08:01.148Z,4.50
2023-05-06T08:09:01.119Z,6.70
2023-05-06T08:10:01.169Z,4.60
2023-05-06T08:11:01.140Z,4.90
2023-05-06T08:12:01.122Z,6.10
2023-05-06T08:13:01.228Z,5.40
2023-05-06T08:14:01.132Z,5.30
2023-05-06T08:15:01.120Z,5.50
2023-05-06T08:16:01.118Z,6.50
2023-05-06T08:17:01.071Z,5.20
2023-05-06T08:18:13.884Z,4.70
2023-05-06T08:19:01.072Z,5.20
2023-05-06T08:20:01.088Z,4.40
2023-05-06T08:21:01.053Z,5.30
2023-05-06T08:22:01.060Z,4.20
2023-05-06T08:23:01.093Z,4.20
2023-05-06T08:24:01.131Z,5.00
2023-05-06T08:25:01.103Z,5.10
2023-05-06T08:26:01.052Z,4.50
2023-05-06T08:27:01.006Z,5.10
2023-05-06T08:28:01.017Z,4.80
2023-05-06T08:29:00.991Z,4.20
2023-05-06T08:30:01.008Z,5.40
2023-05-06T08:31:00.974Z,5.00
2023-05-06T08:32:01.099Z,4.30
2023-05-06T08:33:01.042Z,3.70
2023-05-06T08:34:00.982Z,4.90
2023-05-06T08:35:00.966Z,6.50
2023-05-06T08:36:00.973Z,5.50
2023-05-06T08:37:00.935Z,5.20
2023-05-06T08:38:00.976Z,5.60
2023-05-06T08:39:00.924Z,5.60
2023-05-06T08:40:00.953Z,4.90
2023-05-06T08:41:00.941Z,4.70
2023-05-06T08:42:00.934Z,4.90
2023-05-06T08:43:00.916Z,5.60
2023-05-06T08:44:00.938Z,5.50
2023-05-06T08:45:00.885Z,4.70
2023-05-06T08:46:00.942Z,4.60
2023-05-06T08:47:00.873Z,4.50
2023-05-06T08:48:00.899Z,3.70
2023-05-06T08:49:00.878Z,4.40
2023-05-06T08:50:00.880Z,4.20
2023-05-06T08:51:00.849Z,5.10
2023-05-06T08:52:00.863Z,4.10
2023-05-06T08:53:00.835Z,4.40
2023-05-06T08:54:00.854Z,4.00
2023-05-06T08:55:00.897Z,3.90
2023-05-06T08:56:00.854Z,4.50
2023-05-06T08:57:00.824Z,4.40
2023-05-06T08:58:00.838Z,4.40
2023-05-06T08:59:00.827Z,5.00
2023-05-06T09:00:00.821Z,4.90
2023-05-06T09:01:00.791Z,3.30
2023-05-06T09:02:00.826Z,4.00
2023-05-06T09:03:00.875Z,5.80
2023-05-06T09:04:00.767Z,4.40
2023-05-06T09:05:00.790Z,5.20
2023-05-06T09:06:00.762Z,4.80
2023-05-06T09:07:00.764Z,5.60
2023-05-06T09:08:00.736Z,3.70
2023-05-06T09:09:00.755Z,4.30
2023-05-06T09:10:00.743Z,4.30
2023-05-06T09:11:00.790Z,6.20
2023-05-06T09:12:00.720Z,4.00
2023-05-06T09:13:00.708Z,3.30
2023-05-06T09:14:00.713Z,4.70
2023-05-06T09:15:00.714Z,3.70
2023-05-06T09:16:00.710Z,4.00
2023-05-06T09:17:00.736Z,3.00
2023-05-06T09:18:00.719Z,4.00
2023-05-06T09:19:00.652Z,3.40
2023-05-06T09:20:00.705Z,3.00
2023-05-06T09:21:00.963Z,5.00
2023-05-06T09:22:00.664Z,4.60
2023-05-06T09:23:00.633Z,4.00
2023-05-06T09:24:00.668Z,4.90
2023-05-06T09:25:00.603Z,3.70
2023-05-06T09:26:00.620Z,4.80
2023-05-06T09:27:00.668Z,5.10
2023-05-06T09:28:00.626Z,4.30
2023-05-06T09:29:00.599Z,5.30
2023-05-06T09:30:00.615Z,3.90
2023-05-06T09:31:00.647Z,3.80
2023-05-06T09:32:00.586Z,3.60
2023-05-06T09:33:00.593Z,3.80
2023-05-06T09:34:00.564Z,4.70
2023-05-06T09:35:00.577Z,4.20
2023-05-06T09:36:00.552Z,3.20
2023-05-06T09:37:00.542Z,4.60
2023-05-06T09:38:00.543Z,5.00
2023-05-06T09:39:00.525Z,4.10
2023-05-06T09:40:00.572Z,3.30
2023-05-06T09:41:00.518Z,4.40
2023-05-06T09:42:00.553Z,3.30
2023-05-06T09:43:00.498Z,2.60
2023-05-06T09:44:00.521Z,3.80
2023-05-06T09:45:01.990Z,5.70
2023-05-06T09:46:00.595Z,4.50
2023-05-06T09:47:00.459Z,4.00
2023-05-06T09:48:00.513Z,3.60
2023-05-06T09:49:00.480Z,3.50
2023-05-06T09:50:00.464Z,3.80
2023-05-06T09:51:01.257Z,3.60
2023-05-06T09:52:00.479Z,2.90
2023-05-06T09:53:00.430Z,3.60
2023-05-06T09:54:00.437Z,2.90
2023-05-06T09:55:00.408Z,3.80
2023-05-06T09:56:00.438Z,2.90
2023-05-06T09:57:01.133Z,2.80
2023-05-06T09:58:00.465Z,2.80
2023-05-06T09:59:00.387Z,2.90
2023-05-06T10:00:00.409Z,3.40
2023-05-06T10:01:00.395Z,4.00
2023-05-06T10:02:00.421Z,2.80
2023-05-06T10:03:00.456Z,3.60
2023-05-06T10:04:00.559Z,3.40
2023-05-06T10:05:00.602Z,3.60
2023-05-06T10:06:00.951Z,4.00
2023-05-06T10:07:00.351Z,2.40
2023-05-06T10:08:00.357Z,3.90
2023-05-06T10:09:00.333Z,3.30
2023-05-06T10:10:00.382Z,2.30
2023-05-06T10:11:00.298Z,3.90
2023-05-06T10:12:00.311Z,4.10
2023-05-06T10:13:00.361Z,5.30
2023-05-06T10:14:00.302Z,3.10
2023-05-06T10:15:00.297Z,3.20
2023-05-06T10:16:00.327Z,3.60
2023-05-06T10:17:00.257Z,3.50
2023-05-06T10:18:00.378Z,3.20
2023-05-06T10:19:00.275Z,3.50
2023-05-06T10:20:00.253Z,3.60
2023-05-06T10:21:00.231Z,4.60
2023-05-06T10:22:00.252Z,2.80
2023-05-06T10:23:00.225Z,4.40
2023-05-06T10:24:00.224Z,3.40
2023-05-06T10:25:00.203Z,3.70
2023-05-06T10:26:00.216Z,3.40
2023-05-06T10:27:00.180Z,3.00
2023-05-06T10:28:00.232Z,4.10
2023-05-06T10:29:00.182Z,2.50
2023-05-06T10:30:00.259Z,4.10
2023-05-06T10:31:00.223Z,3.20
2023-05-06T10:32:00.299Z,3.30
2023-05-06T10:33:00.176Z,2.80
2023-05-06T10:34:00.170Z,4.30
2023-05-06T10:35:00.172Z,3.20
2023-05-06T10:36:00.133Z,5.20
2023-05-06T10:37:00.116Z,2.50
2023-05-06T10:38:00.178Z,2.90
2023-05-06T10:39:00.110Z,3.90
2023-05-06T10:40:00.148Z,3.10
2023-05-06T10:41:00.108Z,3.70
2023-05-06T10:42:00.142Z,5.20
2023-05-06T10:43:00.063Z,2.70
2023-05-06T10:44:00.192Z,2.80
2023-05-06T10:45:00.091Z,3.70
2023-05-06T10:46:00.129Z,3.30
2023-05-06T10:47:00.044Z,2.70
2023-05-06T10:48:00.090Z,2.20
2023-05-06T10:49:00.042Z,2.70
2023-05-06T10:50:00.043Z,4.60
2023-05-06T10:51:00.038Z,2.70
2023-05-06T10:52:00.897Z,3.00
2023-05-06T10:52:59.984Z,5.60
2023-05-06T10:53:59.990Z,4.90
2023-05-06T10:54:59.987Z,3.20
2023-05-06T10:56:00.036Z,3.30
2023-05-06T10:56:59.956Z,2.50
2023-05-06T10:57:59.969Z,2.80
2023-05-06T10:58:59.955Z,2.80
2023-05-06T10:59:59.968Z,3.20
2023-05-06T11:00:59.936Z,3.30
2023-05-06T11:01:59.998Z,2.90
2023-05-06T11:03:00.015Z,2.30
2023-05-06T11:03:59.922Z,3.30
2023-05-06T11:04:59.955Z,4.50
2023-05-06T11:05:59.930Z,2.90
2023-05-06T11:06:59.881Z,4.00
2023-05-06T11:08:00.900Z,3.90
2023-05-06T11:08:59.868Z,3.40
2023-05-06T11:09:59.884Z,3.50
2023-05-06T11:10:59.858Z,3.00
2023-05-06T11:11:59.882Z,2.30
2023-05-06T11:12:59.896Z,2.20
2023-05-06T11:13:59.861Z,3.20
2023-05-06T11:14:59.903Z,3.60
2023-05-06T11:15:59.850Z,3.00
2023-05-06T11:16:59.927Z,3.00
2023-05-06T11:17:59.852Z,4.40
2023-05-06T11:18:59.877Z,2.90
2023-05-06T11:19:59.830Z,4.10
2023-05-06T11:20:59.813Z,3.30
2023-05-06T11:21:59.802Z,6.00
2023-05-06T11:22:59.835Z,2.80
2023-05-06T11:23:59.786Z,2.50
2023-05-06T11:24:59.759Z,3.50
2023-05-06T11:25:59.771Z,3.40
2023-05-06T11:26:59.754Z,3.80
2023-05-06T11:27:59.807Z,3.40
2023-05-06T11:28:59.752Z,3.40
2023-05-06T11:29:59.746Z,2.50
2023-05-06T11:30:59.764Z,2.30
2023-05-06T11:31:59.773Z,2.20
2023-05-06T11:32:59.777Z,3.00
2023-05-06T11:33:59.718Z,5.50
2023-05-06T11:34:59.713Z,3.10
2023-05-06T11:35:59.737Z,3.00
2023-05-06T11:36:59.682Z,3.30
2023-05-06T11:37:59.711Z,3.10
2023-05-06T11:38:59.714Z,4.70
2023-05-06T11:39:59.681Z,3.10
2023-05-06T11:40:59.645Z,4.90
2023-05-06T11:41:59.671Z,4.60
2023-05-06T11:42:59.646Z,3.50
2023-05-06T11:43:59.659Z,2.90
2023-05-06T11:44:59.631Z,3.20
2023-05-06T11:45:59.666Z,3.90
2023-05-06T11:46:59.657Z,2.70
2023-05-06T11:47:59.649Z,3.60
2023-05-06T11:48:59.613Z,3.10
2023-05-06T11:49:59.608Z,2.90
2023-05-06T11:50:59.580Z,5.40
2023-05-06T11:51:59.609Z,3.70
2023-05-06T11:52:59.566Z,3.10
2023-05-06T11:53:59.577Z,2.80
2023-05-06T11:55:00.438Z,2.50
2023-05-06T11:55:59.560Z,4.40
2023-05-06T11:56:59.532Z,2.40
2023-05-06T11:57:59.566Z,4.60
2023-05-06T11:58:59.527Z,2.80
2023-05-06T11:59:59.529Z,3.90
2023-05-06T12:00:59.524Z,3.30
2023-05-06T12:01:59.546Z,4.30
2023-05-06T12:02:59.634Z,3.80
2023-05-06T12:03:59.758Z,2.90
2023-05-06T12:04:59.579Z,3.10
2023-05-06T12:05:59.501Z,2.80
2023-05-06T12:06:59.499Z,4.30
2023-05-06T12:07:59.480Z,3.60
2023-05-06T12:08:59.477Z,4.30
2023-05-06T12:09:59.473Z,3.10
2023-05-06T12:10:59.459Z,4.20
2023-05-06T12:11:59.447Z,3.90
2023-05-06T12:12:59.482Z,3.60
2023-05-06T12:13:59.456Z,2.70
2023-05-06T12:14:59.412Z,3.50
2023-05-06T12:15:59.516Z,2.90
2023-05-06T12:16:59.394Z,4.00
2023-05-06T12:17:59.434Z,3.40
2023-05-06T12:18:59.420Z,4.80
2023-05-06T12:19:59.395Z,3.30
2023-05-06T12:20:59.379Z,4.00
2023-05-06T12:21:59.404Z,2.60
2023-05-06T12:22:59.435Z,2.70
2023-05-06T12:23:59.467Z,4.10
2023-05-06T12:24:59.389Z,3.50
2023-05-06T12:25:59.379Z,3.70
2023-05-06T12:26:59.344Z,3.80
2023-05-06T12:27:59.378Z,4.00
2023-05-06T12:28:59.331Z,2.80
2023-05-06T12:29:59.345Z,4.00
2023-05-06T12:30:59.339Z,2.80
2023-05-06T12:31:59.380Z,2.40
2023-05-06T12:32:59.383Z,3.90
2023-05-06T12:34:01.182Z,2.30
2023-05-06T12:34:59.304Z,2.80
2023-05-06T12:35:59.295Z,3.80
2023-05-06T12:36:59.277Z,5.00
2023-05-06T12:37:59.303Z,3.20
2023-05-06T12:38:59.256Z,3.40
2023-05-06T12:39:59.658Z,6.90
2023-05-06T12:40:59.260Z,4.50
2023-05-06T12:41:59.312Z,5.30
2023-05-06T12:42:59.244Z,4.80
2023-05-06T12:43:59.270Z,3.40
2023-05-06T12:44:59.236Z,2.80
2023-05-06T12:45:59.269Z,4.50
2023-05-06T12:46:59.202Z,4.90
2023-05-06T12:47:59.279Z,3.80
2023-05-06T12:48:59.198Z,3.90
2023-05-06T12:49:59.461Z,3.10
2023-05-06T12:50:59.177Z,3.60
2023-05-06T12:51:59.202Z,4.90
2023-05-06T12:52:59.164Z,3.90
2023-05-06T12:53:59.219Z,4.00
2023-05-06T12:54:59.395Z,3.10